Hill Air Force Base
KHIF : now visible

Airfield :











YOU CAN JOIN US ON...

 
LOGIN :

Register | Disclaimer

   EN    FR    IT 

 









Legend :    VFR   Marginal VFR   IFR   Intensive IFR   Very Intensive IFR
Visi :
Ceiling :
>= 8 km
>= 3000ft
5 to 8 km
1000 to 3000 ft
1500m to 5 km
500 to 1000 ft
800 to 1500m
200 to 500 ft
< 800m
< 200 ft
Symbols :   Thunderstorms  Fog  Heavy snow  Heavy precipitations  Wind > 20 kt






- Airport Elevation : 4789 ft


KHIF - Hill Air Force Base

CURRENT METAR :
  • 232258Z 20005KT 10SM FEW013 OVC038 06/04 A2989 RMK AO2A DZB35E46 SLP106 P0000 T00570042

EXPIRED METARs :
  • 232246Z 18004KT 10SM FEW013 OVC038 06/04 A2988 RMK AO2A DZB35E46 SLP103
  • 232235Z 21004KT 10SM -DZ FEW016 OVC040 06/04 A2988 RMK AO2A DZB35 SLP103
  • 232158Z 14005KT 10SM FEW006 OVC042 05/03 A2987 RMK AO2A RAE34 SLP099 P0001 T00510034
  • 232134Z 00000KT 10SM FEW006 SCT015 OVC044 05/04 A2986 RMK AO2A RAE34 SLP096
  • 232058Z 35003KT 6SM -RA SCT005 OVC014 05/05 A2986 RMK AO2A SLP096 P0003 60010 T00460045 58003

TAF AMD TAF KHIF
Valid from the 23 at 22:00 until the 25 at 03:00 UTC


232200Z 2322/2503 14007KT 9999 FEW006 BKN040 QNH2985INS
BECMG 2401/2402 14009KT 9999 FEW040 BKN120 QNH2981INS
BECMG 2421/2422 16012G20KT 9999 -RA BKN050 OVC080 QNH2980INS
BECMG 2423/2424 16015G25KT 9999 VCSH BKN070 BKN120 QNH2978INS TX14/2421Z TN04/2413Z
KZLC FIR / North America



MET'MAP, your aeronautical weather chart ! - Copyright ORBIFLY December 2007 - Disclaimer

ORBIFLY MET'MAP TEAM :

Programming & Development : Alexandra Zaïnal
Concept & original design : Baudouin d'Aumeries
Assistance for programming : Marc-Olivier Méhu
Technical & hardware support : Manuel Goepfert

Contact : metmap@orbifly.com




SOURCES & CREDITS :

   NOAA       Earth
Advisory